createdAt,value
2023-07-25T00:04:34.564Z,7.10
2023-07-25T00:09:36.708Z,9.52
2023-07-25T00:14:38.863Z,7.30
2023-07-25T00:19:40.991Z,6.65
2023-07-25T00:24:43.166Z,8.50
2023-07-25T00:29:45.548Z,6.32
2023-07-25T00:34:51.203Z,7.40
2023-07-25T00:39:54.690Z,8.88
2023-07-25T00:44:56.990Z,7.38
2023-07-25T00:49:59.777Z,8.38
2023-07-25T00:55:03.264Z,8.68
2023-07-25T01:00:06.275Z,7.32
2023-07-25T01:05:10.549Z,7.95
2023-07-25T01:10:14.809Z,6.35
2023-07-25T01:15:16.957Z,5.50
2023-07-25T01:20:19.231Z,5.90
2023-07-25T01:25:21.987Z,8.73
2023-07-25T01:30:24.202Z,9.90
2023-07-25T01:35:26.388Z,9.75
2023-07-25T01:40:28.462Z,9.98
2023-07-25T01:45:30.570Z,7.47
2023-07-25T01:50:33.100Z,7.90
2023-07-25T01:55:37.672Z,11.30
2023-07-25T02:00:39.838Z,17.95
2023-07-25T02:05:41.981Z,8.32
2023-07-25T02:10:44.222Z,7.35
2023-07-25T02:15:46.392Z,9.90
2023-07-25T02:20:48.524Z,6.65
2023-07-25T02:25:50.760Z,7.90
2023-07-25T02:30:52.973Z,8.90
2023-07-25T02:35:55.366Z,5.70
2023-07-25T02:40:58.643Z,7.88
2023-07-25T02:46:00.789Z,9.75
2023-07-25T02:51:03.289Z,8.73
2023-07-25T02:56:05.878Z,6.78
2023-07-25T03:01:08.017Z,7.57
2023-07-25T03:06:10.789Z,6.65
2023-07-25T03:11:13.113Z,6.15
2023-07-25T03:16:15.531Z,12.40
2023-07-25T03:21:17.681Z,9.80
2023-07-25T03:26:20.337Z,6.35
2023-07-25T03:31:22.489Z,6.78
2023-07-25T03:36:25.496Z,6.28
2023-07-25T03:41:27.725Z,8.95
2023-07-25T03:46:29.945Z,9.82
2023-07-25T03:51:32.397Z,7.38
2023-07-25T03:56:34.799Z,6.82
2023-07-25T04:01:36.972Z,8.65
2023-07-25T04:06:39.610Z,7.65
2023-07-25T04:11:41.754Z,8.55
2023-07-25T04:16:43.909Z,11.38
2023-07-25T04:21:46.080Z,7.95
2023-07-25T04:26:49.854Z,9.45
2023-07-25T04:31:53.442Z,6.93
2023-07-25T04:36:56.249Z,8.13
2023-07-25T04:41:58.782Z,6.57
2023-07-25T04:47:01.120Z,10.55
2023-07-25T04:52:03.732Z,8.35
2023-07-25T04:57:06.241Z,11.90
2023-07-25T05:02:08.447Z,10.00
2023-07-25T05:07:10.648Z,7.85
2023-07-25T05:12:14.210Z,8.90
2023-07-25T05:17:16.570Z,11.65
2023-07-25T05:22:18.775Z,9.98
2023-07-25T05:27:20.969Z,10.50
2023-07-25T05:32:23.605Z,11.75
2023-07-25T05:37:35.139Z,11.35
2023-07-25T05:42:37.320Z,8.48
2023-07-25T05:47:39.475Z,12.25
2023-07-25T05:52:41.694Z,9.30
2023-07-25T05:57:43.863Z,11.70
2023-07-25T06:02:46.014Z,8.68
2023-07-25T06:07:48.192Z,13.68
2023-07-25T06:12:50.416Z,15.27
2023-07-25T06:17:52.614Z,12.43
2023-07-25T06:22:54.959Z,12.20
2023-07-25T06:27:57.135Z,8.40
2023-07-25T06:32:59.364Z,10.05
2023-07-25T06:38:02.693Z,9.57
2023-07-25T06:43:05.084Z,8.63
2023-07-25T06:48:07.574Z,9.40
2023-07-25T06:53:10.525Z,12.55
2023-07-25T06:58:14.669Z,9.83
2023-07-25T07:03:17.136Z,11.23
2023-07-25T07:08:19.808Z,11.75
2023-07-25T07:13:23.259Z,6.88
2023-07-25T07:18:28.855Z,8.13
2023-07-25T07:23:32.010Z,13.13
2023-07-25T07:28:34.190Z,16.60
2023-07-25T07:33:36.801Z,8.80
2023-07-25T07:38:42.570Z,8.25
2023-07-25T07:43:49.628Z,15.27
2023-07-25T07:48:52.491Z,9.55
2023-07-25T07:53:55.327Z,12.23
2023-07-25T07:58:57.600Z,8.98
2023-07-25T08:04:00.587Z,10.82
2023-07-25T08:09:03.283Z,11.73
2023-07-25T08:14:05.796Z,8.52
2023-07-25T08:19:08.036Z,8.55
2023-07-25T08:24:26.588Z,5.78
2023-07-25T08:29:45.126Z,8.38
2023-07-25T08:34:47.413Z,5.90
2023-07-25T08:39:49.775Z,7.57
2023-07-25T08:44:53.692Z,5.68
2023-07-25T08:49:57.980Z,7.45
2023-07-25T08:55:05.325Z,5.82
2023-07-25T09:00:13.744Z,4.45
2023-07-25T09:05:41.916Z,6.60
2023-07-25T09:10:48.321Z,4.30
2023-07-25T09:15:58.197Z,6.20
2023-07-25T09:21:04.588Z,5.18
2023-07-25T09:26:11.175Z,6.70
2023-07-25T09:31:13.724Z,6.22
2023-07-25T09:36:16.351Z,7.72
2023-07-25T09:41:19.927Z,7.35
2023-07-25T09:46:22.206Z,7.38
2023-07-25T09:51:24.534Z,5.90
2023-07-25T09:56:27.648Z,5.00
2023-07-25T10:01:30.918Z,5.90
2023-07-25T10:06:36.752Z,15.15
2023-07-25T10:11:40.440Z,5.93
2023-07-25T10:16:43.437Z,5.30
2023-07-25T10:21:50.540Z,9.70
2023-07-25T10:27:01.829Z,5.65
2023-07-25T10:32:04.574Z,4.93
2023-07-25T10:37:37.685Z,3.50
2023-07-25T10:43:05.861Z,3.40
2023-07-25T10:48:27.785Z,4.95
2023-07-25T10:53:30.420Z,5.43
2023-07-25T10:58:34.285Z,3.83
2023-07-25T11:03:37.647Z,3.30
2023-07-25T11:08:43.055Z,3.63
2023-07-25T11:13:46.793Z,4.88
2023-07-25T11:18:51.631Z,3.28
2023-07-25T11:24:04.752Z,5.65
2023-07-25T11:29:09.237Z,5.65
2023-07-25T11:34:13.451Z,4.72
2023-07-25T11:39:16.994Z,4.50
2023-07-25T11:44:20.486Z,3.45
2023-07-25T11:49:40.142Z,4.55
2023-07-25T11:54:45.549Z,4.22
2023-07-25T11:59:54.143Z,2.65
2023-07-25T12:04:56.503Z,3.65
2023-07-25T12:10:00.211Z,3.92
2023-07-25T12:15:03.922Z,2.63
2023-07-25T12:20:21.969Z,2.85
2023-07-25T12:25:24.165Z,2.95
2023-07-25T12:30:26.636Z,2.30
2023-07-25T12:35:28.926Z,5.35
2023-07-25T12:40:31.280Z,2.78
2023-07-25T12:45:33.474Z,1.85
2023-07-25T12:50:35.729Z,3.13
2023-07-25T12:55:38.995Z,2.13
2023-07-25T13:00:41.362Z,1.75
2023-07-25T13:05:43.521Z,4.28
2023-07-25T13:10:46.008Z,3.30
2023-07-25T13:15:48.650Z,2.72
2023-07-25T13:20:51.185Z,5.45
2023-07-25T13:25:53.311Z,6.35
2023-07-25T13:30:55.645Z,3.42
2023-07-25T13:35:57.835Z,4.82
2023-07-25T13:41:00.444Z,4.53
2023-07-25T13:46:04.967Z,1.88
2023-07-25T13:51:07.333Z,1.77
2023-07-25T13:56:09.882Z,1.98
2023-07-25T14:01:12.044Z,2.08
2023-07-25T14:06:14.275Z,2.53
2023-07-25T14:11:16.599Z,1.83
2023-07-25T14:16:18.878Z,2.38
2023-07-25T14:21:21.135Z,2.67
2023-07-25T14:26:23.399Z,1.88
2023-07-25T14:31:26.438Z,1.85
2023-07-25T14:36:29.045Z,1.80
2023-07-25T14:41:31.342Z,1.67
2023-07-25T14:46:33.956Z,1.45
2023-07-25T14:51:36.742Z,1.95
2023-07-25T14:56:39.297Z,2.78
2023-07-25T15:01:41.910Z,0.90
2023-07-25T15:06:44.270Z,1.70
2023-07-25T15:11:46.702Z,4.68
2023-07-25T15:16:48.925Z,1.42
2023-07-25T15:21:51.290Z,1.50
2023-07-25T15:26:53.802Z,1.35
2023-07-25T15:31:56.266Z,2.50
2023-07-25T15:36:58.632Z,1.75
2023-07-25T15:42:01.387Z,3.65
2023-07-25T15:47:04.234Z,2.83
2023-07-25T15:52:07.027Z,2.22
2023-07-25T15:57:09.423Z,7.78
2023-07-25T16:02:12.727Z,1.95
2023-07-25T16:07:14.867Z,1.58
2023-07-25T16:12:17.538Z,2.53
2023-07-25T16:17:19.799Z,3.67
2023-07-25T16:22:21.910Z,3.33
2023-07-25T16:27:24.164Z,1.58
2023-07-25T16:32:26.617Z,4.25
2023-07-25T16:37:28.859Z,3.40
2023-07-25T16:42:31.114Z,2.08
2023-07-25T16:47:33.545Z,6.95
2023-07-25T16:52:36.569Z,1.55
2023-07-25T16:57:38.723Z,2.38
2023-07-25T17:02:42.257Z,5.60
2023-07-25T17:07:45.338Z,4.97
2023-07-25T17:12:47.534Z,2.75
2023-07-25T17:17:49.755Z,2.03
2023-07-25T17:22:52.787Z,1.98
2023-07-25T17:27:55.496Z,2.00
2023-07-25T17:32:59.258Z,4.80
2023-07-25T17:38:02.860Z,4.53
2023-07-25T17:43:05.289Z,2.90
2023-07-25T17:48:07.509Z,3.63
2023-07-25T17:53:09.774Z,3.30
2023-07-25T17:58:13.421Z,2.30
2023-07-25T18:03:15.962Z,4.57
2023-07-25T18:08:18.424Z,2.13
2023-07-25T18:13:22.440Z,4.32
2023-07-25T18:18:24.631Z,4.68
2023-07-25T18:23:26.742Z,4.13
2023-07-25T18:28:28.974Z,3.72
2023-07-25T18:33:31.752Z,4.47
2023-07-25T18:38:35.450Z,3.58
2023-07-25T18:43:37.678Z,2.75
2023-07-25T18:48:40.009Z,3.03
2023-07-25T18:53:42.311Z,4.30
2023-07-25T18:58:44.660Z,2.70
2023-07-25T19:03:46.914Z,3.70
2023-07-25T19:08:49.133Z,4.90
2023-07-25T19:13:51.473Z,3.97
2023-07-25T19:18:53.759Z,4.72
2023-07-25T19:23:56.104Z,10.30
2023-07-25T19:29:01.123Z,5.30
2023-07-25T19:34:03.849Z,4.07
2023-07-25T19:39:06.263Z,4.60
2023-07-25T19:44:08.551Z,4.03
2023-07-25T19:49:10.692Z,6.60
2023-07-25T19:54:14.659Z,3.40
2023-07-25T19:59:16.994Z,2.80
2023-07-25T20:04:19.162Z,5.00
2023-07-25T20:09:21.403Z,5.53
2023-07-25T20:14:23.637Z,4.68
2023-07-25T20:19:27.012Z,5.15
2023-07-25T20:24:29.387Z,4.50
2023-07-25T20:29:33.472Z,6.13
2023-07-25T20:34:36.027Z,3.75
2023-07-25T20:39:38.414Z,3.15
2023-07-25T20:44:40.646Z,2.70
2023-07-25T20:49:43.017Z,3.88
2023-07-25T20:54:45.271Z,3.08
2023-07-25T20:59:49.412Z,3.78
2023-07-25T21:04:51.866Z,6.78
2023-07-25T21:09:54.192Z,3.00
2023-07-25T21:14:56.313Z,3.60
2023-07-25T21:19:58.546Z,4.68
2023-07-25T21:25:00.974Z,3.35
2023-07-25T21:30:03.449Z,3.97
2023-07-25T21:35:05.792Z,2.72
2023-07-25T21:40:08.648Z,3.47
2023-07-25T21:45:11.118Z,2.78
2023-07-25T21:50:13.356Z,4.60
2023-07-25T21:55:15.562Z,2.80
2023-07-25T22:00:17.670Z,4.13
2023-07-25T22:05:19.917Z,3.20
2023-07-25T22:10:23.304Z,7.28
2023-07-25T22:15:25.417Z,3.13
2023-07-25T22:20:32.021Z,5.00
2023-07-25T22:25:40.692Z,3.70
2023-07-25T22:30:42.838Z,3.95
2023-07-25T22:35:44.962Z,7.45
2023-07-25T22:40:47.159Z,5.78
2023-07-25T22:45:49.351Z,6.45
2023-07-25T22:50:52.708Z,3.65
2023-07-25T22:55:54.994Z,3.72
2023-07-25T23:00:57.313Z,5.18
2023-07-25T23:06:02.442Z,5.50
2023-07-25T23:11:04.561Z,4.03
2023-07-25T23:16:07.007Z,4.97
2023-07-25T23:21:09.234Z,5.90
2023-07-25T23:26:12.153Z,6.15
2023-07-25T23:31:14.302Z,5.90
2023-07-25T23:36:16.384Z,6.57
2023-07-25T23:41:18.519Z,6.43
2023-07-25T23:46:20.772Z,5.75
2023-07-25T23:51:22.988Z,7.15
2023-07-25T23:56:25.075Z,6.28
